Washington, District of Columbia
Traffic Map
Current Weather Conditions
Washington, District of Columbia
Broken Clouds
Broken Clouds
15°
Feels Like: 15°
Wind Chill: 15° Ceiling: 25000
Heat Index: 15° Visibility: 10mi
Dew Point: Wind: 9mph
Humidity: 39% Direction: 50° (NE)
Pressure: 30.22in Gusts: 0mph
Raw Report DataKDCA 202252Z 05008KT 10SM BKN250 15/01 A3022 RMK AO2 SLP235 T01500011
Traffic Incident Summary
Active as of:
Severity:
Category:
InformationThere was an issue retrieving the traffic information for this location. Please try a different location or try again shortly.
Advertisements
Track Severe Weather on mobile